createdAt,value
2017-11-25T00:00:43.335Z,60.30
2017-11-25T00:03:10.857Z,60.20
2017-11-25T00:05:38.764Z,60.10
2017-11-25T00:10:35.285Z,60.20
2017-11-25T00:13:02.821Z,60.10
2017-11-25T00:15:30.721Z,60.00
2017-11-25T00:17:59.016Z,60.00
2017-11-25T00:20:26.516Z,60.00
2017-11-25T00:22:54.826Z,60.80
2017-11-25T00:25:22.356Z,60.40
2017-11-25T00:27:49.867Z,60.40
2017-11-25T00:30:18.159Z,60.30
2017-11-25T00:35:14.567Z,60.10
2017-11-25T00:37:42.464Z,60.20
2017-11-25T00:40:09.995Z,60.40
2017-11-25T00:42:38.272Z,60.40
2017-11-25T00:45:06.207Z,60.30
2017-11-25T00:47:33.703Z,60.20
2017-11-25T00:50:01.224Z,60.60
2017-11-25T00:52:28.746Z,60.90
2017-11-25T00:54:56.376Z,61.10
2017-11-25T00:57:24.301Z,61.10
2017-11-25T00:59:52.956Z,60.90
2017-11-25T01:02:20.509Z,60.80
2017-11-25T01:04:48.012Z,61.90
2017-11-25T01:07:15.560Z,60.70
2017-11-25T01:09:43.064Z,61.60
2017-11-25T01:14:39.854Z,61.60
2017-11-25T01:19:36.635Z,61.60
2017-11-25T01:22:04.935Z,61.70
2017-11-25T01:24:32.454Z,61.40
2017-11-25T01:26:59.993Z,61.70
2017-11-25T01:29:27.494Z,61.70
2017-11-25T01:31:55.421Z,61.80
2017-11-25T01:34:23.327Z,61.70
2017-11-25T01:36:51.645Z,61.60
2017-11-25T01:39:19.163Z,61.70
2017-11-25T01:41:47.456Z,61.70
2017-11-25T01:44:15.351Z,61.60
2017-11-25T01:46:42.904Z,61.80
2017-11-25T01:51:39.670Z,61.90
2017-11-25T01:54:07.555Z,61.80
2017-11-25T01:56:35.089Z,62.10
2017-11-25T01:59:02.983Z,62.00
2017-11-25T02:01:32.040Z,62.10
2017-11-25T02:03:59.566Z,62.10
2017-11-25T02:06:27.091Z,62.20
2017-11-25T02:08:55.373Z,62.80
2017-11-25T02:11:24.244Z,62.20
2017-11-25T02:13:51.755Z,62.20
2017-11-25T02:16:19.311Z,62.00
2017-11-25T02:18:47.585Z,62.00
2017-11-25T02:21:15.849Z,62.10
2017-11-25T02:26:12.239Z,62.40
2017-11-25T02:28:40.881Z,62.60
2017-11-25T02:31:08.368Z,62.60
2017-11-25T02:33:35.897Z,61.80
2017-11-25T02:36:04.168Z,62.60
2017-11-25T02:38:31.688Z,63.00
2017-11-25T02:40:59.184Z,63.70
2017-11-25T02:43:27.480Z,64.70
2017-11-25T02:45:54.976Z,65.40
2017-11-25T02:48:22.908Z,65.80
2017-11-25T02:50:51.920Z,66.60
2017-11-25T02:53:20.217Z,66.00
2017-11-25T02:55:47.720Z,66.00
2017-11-25T02:58:15.240Z,65.90
2017-11-25T03:00:43.149Z,66.30
2017-11-25T03:03:12.163Z,66.50
2017-11-25T03:05:39.677Z,66.60
2017-11-25T03:08:08.336Z,66.90
2017-11-25T03:10:35.828Z,67.00
2017-11-25T03:13:03.349Z,67.00
2017-11-25T03:15:30.841Z,66.90
2017-11-25T03:17:58.364Z,66.70
2017-11-25T03:20:25.852Z,66.60
2017-11-25T03:22:53.381Z,66.10
2017-11-25T03:25:20.880Z,66.20
2017-11-25T03:27:48.409Z,66.30
2017-11-25T03:30:15.940Z,66.10
2017-11-25T03:35:12.315Z,65.70
2017-11-25T03:37:39.835Z,65.20
2017-11-25T03:40:08.124Z,65.40
2017-11-25T03:42:36.396Z,65.80
2017-11-25T03:45:04.032Z,66.40
2017-11-25T03:47:32.299Z,66.50
2017-11-25T03:49:59.823Z,66.70
2017-11-25T03:52:28.092Z,67.20
2017-11-25T03:54:56.384Z,66.40
2017-11-25T03:57:23.897Z,66.30
2017-11-25T03:59:51.424Z,66.80
2017-11-25T04:02:18.932Z,67.10
2017-11-25T04:04:47.598Z,67.30
2017-11-25T04:07:15.887Z,67.40
2017-11-25T04:09:43.821Z,67.50
2017-11-25T04:12:11.320Z,67.30
2017-11-25T04:14:38.849Z,67.20
2017-11-25T04:17:07.122Z,67.40
2017-11-25T04:19:34.635Z,66.60
2017-11-25T04:22:02.169Z,66.30
2017-11-25T04:24:30.439Z,66.00
2017-11-25T04:26:57.957Z,65.70
2017-11-25T04:29:25.461Z,65.40
2017-11-25T04:31:53.748Z,65.20
2017-11-25T04:34:21.256Z,65.00
2017-11-25T04:36:48.808Z,64.90
2017-11-25T04:39:17.089Z,65.30
2017-11-25T04:44:14.260Z,64.30
2017-11-25T04:46:42.535Z,64.30
2017-11-25T04:49:10.065Z,64.30
2017-11-25T04:51:37.580Z,64.30
2017-11-25T04:54:05.097Z,64.20
2017-11-25T05:01:31.461Z,63.60
2017-11-25T05:03:59.000Z,63.70
2017-11-25T05:06:27.638Z,63.60
2017-11-25T05:08:55.159Z,64.00
2017-11-25T05:13:51.532Z,67.70
2017-11-25T05:18:48.680Z,69.80
2017-11-25T05:23:45.816Z,71.50
2017-11-25T05:26:13.717Z,70.80
2017-11-25T05:28:41.997Z,70.90
2017-11-25T05:31:09.492Z,71.50
2017-11-25T05:33:37.801Z,72.20
2017-11-25T05:36:05.313Z,72.30
2017-11-25T05:38:33.944Z,72.00
2017-11-25T05:41:01.472Z,71.90
2017-11-25T05:43:30.491Z,71.80
2017-11-25T05:45:59.520Z,71.60
2017-11-25T05:48:27.015Z,70.60
2017-11-25T05:50:54.532Z,70.50
2017-11-25T05:53:22.811Z,71.00
2017-11-25T05:55:50.748Z,71.00
2017-11-25T05:58:18.239Z,70.60
2017-11-25T06:00:45.760Z,70.60
2017-11-25T06:03:13.251Z,70.30
2017-11-25T06:05:42.279Z,69.80
2017-11-25T06:08:09.782Z,69.30
2017-11-25T06:10:37.305Z,69.00
2017-11-25T06:13:05.199Z,68.80
2017-11-25T06:15:32.754Z,68.80
2017-11-25T06:18:00.260Z,68.80
2017-11-25T06:20:28.532Z,68.60
2017-11-25T06:22:57.183Z,69.30
2017-11-25T06:25:24.704Z,69.30
2017-11-25T06:30:21.092Z,69.10
2017-11-25T06:32:49.739Z,69.00
2017-11-25T06:35:17.261Z,69.20
2017-11-25T06:37:45.544Z,69.10
2017-11-25T06:40:13.808Z,69.70
2017-11-25T06:42:41.716Z,68.80
2017-11-25T06:45:09.212Z,68.70
2017-11-25T06:47:36.741Z,68.30
2017-11-25T06:50:04.255Z,68.30
2017-11-25T06:52:31.778Z,68.80
2017-11-25T06:54:59.267Z,68.90
2017-11-25T06:57:26.800Z,68.70
2017-11-25T06:59:55.079Z,68.20
2017-11-25T07:02:22.604Z,68.80
2017-11-25T07:04:51.251Z,69.70
2017-11-25T07:07:18.794Z,70.40
2017-11-25T07:09:46.313Z,71.00
2017-11-25T07:12:15.320Z,71.40
2017-11-25T07:14:42.902Z,71.80
2017-11-25T07:17:10.804Z,71.90
2017-11-25T07:19:38.733Z,71.50
2017-11-25T07:22:06.251Z,71.40
2017-11-25T07:24:33.780Z,70.90
2017-11-25T07:27:01.273Z,71.10
2017-11-25T07:29:30.486Z,70.20
2017-11-25T07:31:58.953Z,69.70
2017-11-25T07:34:26.495Z,69.90
2017-11-25T07:36:56.558Z,69.90
2017-11-25T07:39:24.125Z,70.00
2017-11-25T07:44:20.525Z,71.10
2017-11-25T07:46:48.029Z,71.20
2017-11-25T07:49:16.684Z,71.40
2017-11-25T07:51:44.190Z,71.40
2017-11-25T07:54:12.847Z,71.20
2017-11-25T07:56:41.116Z,71.30
2017-11-25T07:59:09.383Z,71.20
2017-11-25T08:01:38.395Z,70.10
2017-11-25T08:04:06.663Z,69.90
2017-11-25T08:06:34.553Z,69.60
2017-11-25T08:09:02.849Z,69.60
2017-11-25T08:11:31.128Z,69.70
2017-11-25T08:13:59.392Z,70.10
2017-11-25T08:16:26.916Z,70.50
2017-11-25T08:18:54.420Z,70.20
2017-11-25T08:21:23.071Z,70.30
2017-11-25T08:23:50.563Z,70.40
2017-11-25T08:26:18.090Z,70.10
2017-11-25T08:28:45.616Z,69.50
2017-11-25T08:31:13.280Z,69.20
2017-11-25T08:33:41.923Z,69.10
2017-11-25T08:36:10.198Z,68.90
2017-11-25T08:38:37.697Z,68.50
2017-11-25T08:41:05.216Z,68.00
2017-11-25T08:43:33.124Z,67.80
2017-11-25T08:46:01.771Z,67.50
2017-11-25T08:50:58.330Z,67.10
2017-11-25T08:53:25.874Z,67.00
2017-11-25T08:55:53.779Z,66.80
2017-11-25T08:58:21.315Z,66.70
2017-11-25T09:00:48.838Z,66.20
2017-11-25T09:03:16.396Z,66.50
2017-11-25T09:05:44.672Z,66.70
2017-11-25T09:10:41.048Z,65.80
2017-11-25T09:13:10.084Z,65.60
2017-11-25T09:15:37.612Z,65.20
2017-11-25T09:18:05.919Z,65.60
2017-11-25T09:20:33.412Z,64.70
2017-11-25T09:23:00.932Z,64.60
2017-11-25T09:25:29.212Z,65.20
2017-11-25T09:27:56.707Z,63.90
2017-11-25T09:30:24.227Z,64.00
2017-11-25T09:32:52.505Z,63.80
2017-11-25T09:35:20.442Z,62.60
2017-11-25T09:37:47.965Z,62.10
2017-11-25T09:40:15.492Z,62.20
2017-11-25T09:42:44.515Z,62.60
2017-11-25T09:45:12.009Z,63.70
2017-11-25T09:50:08.365Z,63.90
2017-11-25T09:52:37.027Z,64.70
2017-11-25T10:00:04.227Z,65.80
2017-11-25T10:02:33.233Z,66.60
2017-11-25T10:05:01.878Z,67.20
2017-11-25T10:07:29.371Z,67.50
2017-11-25T10:09:58.038Z,68.20
2017-11-25T10:12:25.552Z,68.60
2017-11-25T10:14:53.052Z,69.60
2017-11-25T10:17:20.565Z,69.40
2017-11-25T10:19:48.088Z,69.90
2017-11-25T10:22:15.640Z,70.10
2017-11-25T10:24:43.141Z,70.40
2017-11-25T10:27:10.661Z,70.40
2017-11-25T10:29:38.160Z,70.40
2017-11-25T10:32:05.677Z,70.80
2017-11-25T10:34:33.200Z,71.20
2017-11-25T10:37:01.522Z,71.70
2017-11-25T10:39:29.040Z,72.30
2017-11-25T10:41:56.596Z,72.60
2017-11-25T10:44:24.110Z,73.10
2017-11-25T10:46:51.636Z,73.20
2017-11-25T10:49:19.140Z,74.00
2017-11-25T10:51:47.415Z,74.40
2017-11-25T10:54:15.489Z,74.20
2017-11-25T11:01:41.497Z,73.80
2017-11-25T11:04:09.416Z,73.80
2017-11-25T11:06:36.925Z,74.00
2017-11-25T11:09:05.192Z,73.60
2017-11-25T11:11:32.691Z,73.90
2017-11-25T11:14:00.216Z,74.00
2017-11-25T11:16:28.865Z,73.40
2017-11-25T11:21:26.020Z,72.20
2017-11-25T11:23:54.356Z,72.00
2017-11-25T11:26:22.255Z,71.80
2017-11-25T11:28:50.525Z,71.90
2017-11-25T11:31:19.559Z,72.10
2017-11-25T11:33:47.831Z,73.60
2017-11-25T11:36:15.332Z,73.10
2017-11-25T11:38:42.836Z,73.20
2017-11-25T11:41:10.800Z,73.60
2017-11-25T11:43:38.300Z,74.10
2017-11-25T11:46:07.300Z,74.70
2017-11-25T11:48:35.572Z,74.60
2017-11-25T11:53:31.960Z,74.90
2017-11-25T11:55:59.864Z,75.20
2017-11-25T11:58:28.128Z,75.00
2017-11-25T12:00:56.796Z,75.00
2017-11-25T12:03:24.692Z,74.70
2017-11-25T12:05:52.208Z,74.90
2017-11-25T12:08:19.732Z,74.80
2017-11-25T12:10:47.272Z,74.90
2017-11-25T12:13:14.772Z,75.40
2017-11-25T12:15:43.037Z,75.70
2017-11-25T12:18:11.381Z,76.00
2017-11-25T12:20:39.656Z,76.20
2017-11-25T12:23:07.944Z,76.20
2017-11-25T12:25:35.450Z,75.80
2017-11-25T12:28:03.738Z,75.80
2017-11-25T12:30:31.230Z,75.90
2017-11-25T12:32:58.752Z,75.40
2017-11-25T12:35:26.407Z,75.20
2017-11-25T12:37:54.725Z,75.20
2017-11-25T12:40:22.349Z,75.50
2017-11-25T12:42:50.632Z,75.70
2017-11-25T12:47:47.176Z,75.00
2017-11-25T12:50:15.085Z,75.10
2017-11-25T12:52:43.352Z,75.70
2017-11-25T12:55:11.619Z,75.50
2017-11-25T12:57:39.126Z,75.40
2017-11-25T13:00:07.429Z,75.10
2017-11-25T13:02:34.933Z,75.10
2017-11-25T13:05:03.962Z,75.10
2017-11-25T13:07:31.471Z,75.30
2017-11-25T13:09:58.976Z,75.80
2017-11-25T13:12:26.512Z,75.50
2017-11-25T13:14:54.025Z,75.40
2017-11-25T13:17:21.533Z,75.50
2017-11-25T13:19:49.829Z,75.40
2017-11-25T13:22:17.340Z,75.30
2017-11-25T13:24:44.885Z,75.40
2017-11-25T13:27:13.161Z,75.50
2017-11-25T13:29:41.825Z,75.20
2017-11-25T13:32:09.727Z,75.50
2017-11-25T13:34:38.396Z,75.20
2017-11-25T13:37:05.924Z,75.00
2017-11-25T13:39:34.713Z,75.20
2017-11-25T13:42:02.985Z,75.10
2017-11-25T13:46:59.366Z,75.30
2017-11-25T13:49:26.877Z,74.80
2017-11-25T13:51:54.781Z,74.50
2017-11-25T13:56:51.500Z,74.70
2017-11-25T13:59:19.417Z,75.20
2017-11-25T14:04:16.590Z,75.50
2017-11-25T14:06:44.504Z,75.40
2017-11-25T14:09:12.016Z,75.20
2017-11-25T14:11:40.341Z,74.90
2017-11-25T14:14:07.836Z,74.40
2017-11-25T14:16:36.857Z,74.90
2017-11-25T14:19:05.144Z,74.70
2017-11-25T14:21:33.041Z,74.70
2017-11-25T14:24:01.674Z,75.10
2017-11-25T14:26:29.183Z,74.80
2017-11-25T14:28:56.712Z,75.20
2017-11-25T14:31:24.229Z,75.00
2017-11-25T14:33:51.737Z,74.50
2017-11-25T14:36:19.263Z,74.80
2017-11-25T14:38:46.776Z,74.60
2017-11-25T14:41:14.671Z,74.50
2017-11-25T14:43:43.332Z,74.00
2017-11-25T14:46:10.850Z,73.90
2017-11-25T14:48:38.413Z,74.10
2017-11-25T14:51:06.318Z,74.00
2017-11-25T14:53:33.827Z,73.80
2017-11-25T14:56:01.324Z,73.90
2017-11-25T14:58:28.816Z,73.60
2017-11-25T15:00:56.311Z,73.50
2017-11-25T15:03:23.827Z,73.80
